sensor_id;sensor_type;location;lat;lon;timestamp;P1;durP1;ratioP1;P2;durP2;ratioP2
42884;SDS011;28534;48.100;11.584;2022-11-20T04:00:19;1.10;;;0.90;;
42884;SDS011;28534;48.100;11.584;2022-11-20T04:05:21;1.33;;;1.05;;
42884;SDS011;28534;48.100;11.584;2022-11-20T04:10:22;1.05;;;0.95;;
42884;SDS011;28534;48.100;11.584;2022-11-20T04:15:25;0.85;;;0.85;;
42884;SDS011;28534;48.100;11.584;2022-11-20T04:20:27;1.17;;;1.00;;
42884;SDS011;28534;48.100;11.584;2022-11-20T04:25:29;1.00;;;0.90;;
42884;SDS011;28534;48.100;11.584;2022-11-20T04:30:32;0.90;;;0.88;;
42884;SDS011;28534;48.100;11.584;2022-11-20T04:35:34;0.82;;;0.82;;
42884;SDS011;28534;48.100;11.584;2022-11-20T04:40:36;0.77;;;0.77;;
42884;SDS011;28534;48.100;11.584;2022-11-20T04:45:39;1.10;;;1.00;;
42884;SDS011;28534;48.100;11.584;2022-11-20T04:50:41;1.02;;;0.85;;
42884;SDS011;28534;48.100;11.584;2022-11-20T04:55:43;1.10;;;0.90;;
42884;SDS011;28534;48.100;11.584;2022-11-20T05:00:46;1.13;;;0.88;;
42884;SDS011;28534;48.100;11.584;2022-11-20T05:05:48;1.23;;;0.90;;
42884;SDS011;28534;48.100;11.584;2022-11-20T05:10:49;0.75;;;0.75;;
42884;SDS011;28534;48.100;11.584;2022-11-20T05:15:52;1.10;;;0.82;;
42884;SDS011;28534;48.100;11.584;2022-11-20T05:20:55;1.38;;;0.90;;
42884;SDS011;28534;48.100;11.584;2022-11-20T05:25:57;1.90;;;0.90;;
42884;SDS011;28534;48.100;11.584;2022-11-20T05:31:05;1.10;;;0.90;;
42884;SDS011;28534;48.100;11.584;2022-11-20T05:36:07;1.35;;;0.77;;
42884;SDS011;28534;48.100;11.584;2022-11-20T05:41:10;2.08;;;0.80;;
42884;SDS011;28534;48.100;11.584;2022-11-20T05:46:15;3.85;;;1.40;;
42884;SDS011;28534;48.100;11.584;2022-11-20T05:51:19;5.90;;;1.42;;
42884;SDS011;28534;48.100;11.584;2022-11-20T05:56:22;5.72;;;1.70;;
42884;SDS011;28534;48.100;11.584;2022-11-20T06:01:25;6.78;;;2.10;;
42884;SDS011;28534;48.100;11.584;2022-11-20T06:06:27;7.55;;;2.00;;
42884;SDS011;28534;48.100;11.584;2022-11-20T06:11:29;17.25;;;2.70;;
42884;SDS011;28534;48.100;11.584;2022-11-20T06:16:32;17.90;;;3.08;;
42884;SDS011;28534;48.100;11.584;2022-11-20T06:21:34;17.45;;;3.15;;
42884;SDS011;28534;48.100;11.584;2022-11-20T06:26:36;8.82;;;3.08;;
42884;SDS011;28534;48.100;11.584;2022-11-20T06:31:39;15.23;;;2.63;;
42884;SDS011;28534;48.100;11.584;2022-11-20T06:36:42;15.13;;;3.13;;
42884;SDS011;28534;48.100;11.584;2022-11-20T06:41:44;12.43;;;2.75;;
42884;SDS011;28534;48.100;11.584;2022-11-20T06:46:47;12.50;;;2.53;;
42884;SDS011;28534;48.100;11.584;2022-11-20T06:51:49;10.85;;;2.95;;
42884;SDS011;28534;48.100;11.584;2022-11-20T06:56:50;13.25;;;2.75;;
42884;SDS011;28534;48.100;11.584;2022-11-20T07:01:54;11.40;;;2.13;;
42884;SDS011;28534;48.100;11.584;2022-11-20T07:06:55;15.98;;;2.90;;
42884;SDS011;28534;48.100;11.584;2022-11-20T07:11:57;13.27;;;3.10;;
42884;SDS011;28534;48.100;11.584;2022-11-20T07:17:00;12.13;;;2.88;;
42884;SDS011;28534;48.100;11.584;2022-11-20T07:22:02;8.10;;;2.10;;
42884;SDS011;28534;48.100;11.584;2022-11-20T07:27:04;9.00;;;2.40;;
42884;SDS011;28534;48.100;11.584;2022-11-20T07:32:07;10.32;;;2.45;;
42884;SDS011;28534;48.100;11.584;2022-11-20T07:37:09;12.93;;;2.17;;
42884;SDS011;28534;48.100;11.584;2022-11-20T07:42:11;9.80;;;2.17;;
42884;SDS011;28534;48.100;11.584;2022-11-20T07:47:14;8.15;;;2.20;;
42884;SDS011;28534;48.100;11.584;2022-11-20T07:52:15;8.35;;;2.35;;
42884;SDS011;28534;48.100;11.584;2022-11-20T07:57:17;7.72;;;2.28;;
42884;SDS011;28534;48.100;11.584;2022-11-20T08:02:20;9.00;;;2.20;;
42884;SDS011;28534;48.100;11.584;2022-11-20T08:07:22;7.78;;;2.00;;
42884;SDS011;28534;48.100;11.584;2022-11-20T08:12:24;5.95;;;2.08;;
42884;SDS011;28534;48.100;11.584;2022-11-20T08:17:44;8.65;;;2.15;;
42884;SDS011;28534;48.100;11.584;2022-11-20T08:22:46;8.63;;;2.00;;
42884;SDS011;28534;48.100;11.584;2022-11-20T08:27:48;7.13;;;2.05;;
42884;SDS011;28534;48.100;11.584;2022-11-20T08:32:51;11.43;;;2.20;;
42884;SDS011;28534;48.100;11.584;2022-11-20T08:37:53;10.73;;;2.60;;
42884;SDS011;28534;48.100;11.584;2022-11-20T08:42:55;7.63;;;2.38;;
42884;SDS011;28534;48.100;11.584;2022-11-20T08:48:00;11.07;;;2.80;;
42884;SDS011;28534;48.100;11.584;2022-11-20T08:53:03;14.82;;;2.80;;
42884;SDS011;28534;48.100;11.584;2022-11-20T08:58:05;11.57;;;2.58;;
42884;SDS011;28534;48.100;11.584;2022-11-20T09:03:09;12.07;;;3.10;;
42884;SDS011;28534;48.100;11.584;2022-11-20T09:08:11;13.48;;;3.38;;
42884;SDS011;28534;48.100;11.584;2022-11-20T09:13:12;12.65;;;2.85;;
42884;SDS011;28534;48.100;11.584;2022-11-20T09:18:16;13.43;;;2.88;;
42884;SDS011;28534;48.100;11.584;2022-11-20T09:23:17;12.82;;;2.53;;
42884;SDS011;28534;48.100;11.584;2022-11-20T09:28:19;13.95;;;2.97;;
42884;SDS011;28534;48.100;11.584;2022-11-20T09:33:22;12.20;;;2.30;;
42884;SDS011;28534;48.100;11.584;2022-11-20T09:38:24;16.70;;;3.35;;
42884;SDS011;28534;48.100;11.584;2022-11-20T09:43:29;16.58;;;2.97;;
42884;SDS011;28534;48.100;11.584;2022-11-20T09:48:45;16.83;;;3.30;;
42884;SDS011;28534;48.100;11.584;2022-11-20T09:54:00;14.25;;;2.47;;
42884;SDS011;28534;48.100;11.584;2022-11-20T09:59:18;13.40;;;2.67;;
42884;SDS011;28534;48.100;11.584;2022-11-20T10:04:35;24.92;;;10.07;;
42884;SDS011;28534;48.100;11.584;2022-11-20T10:09:48;19.42;;;9.57;;
42884;SDS011;28534;48.100;11.584;2022-11-20T10:14:56;23.80;;;11.88;;
42884;SDS011;28534;48.100;11.584;2022-11-20T10:20:14;21.05;;;11.30;;
42884;SDS011;28534;48.100;11.584;2022-11-20T10:25:21;27.15;;;13.25;;
42884;SDS011;28534;48.100;11.584;2022-11-20T10:30:29;24.48;;;12.70;;
42884;SDS011;28534;48.100;11.584;2022-11-20T10:35:38;27.33;;;11.70;;
42884;SDS011;28534;48.100;11.584;2022-11-20T10:40:44;28.17;;;11.45;;
42884;SDS011;28534;48.100;11.584;2022-11-20T10:45:50;27.20;;;10.98;;
42884;SDS011;28534;48.100;11.584;2022-11-20T10:51:06;25.95;;;10.40;;
42884;SDS011;28534;48.100;11.584;2022-11-20T10:56:16;8.30;;;3.78;;
42884;SDS011;28534;48.100;11.584;2022-11-20T11:01:21;7.88;;;2.58;;
42884;SDS011;28534;48.100;11.584;2022-11-20T11:06:27;3.85;;;1.90;;
42884;SDS011;28534;48.100;11.584;2022-11-20T11:11:35;4.18;;;1.70;;
42884;SDS011;28534;48.100;11.584;2022-11-20T11:16:48;6.75;;;1.90;;
42884;SDS011;28534;48.100;11.584;2022-11-20T11:21:53;6.63;;;2.17;;
42884;SDS011;28534;48.100;11.584;2022-11-20T11:26:57;6.70;;;1.88;;
42884;SDS011;28534;48.100;11.584;2022-11-20T11:32:04;7.53;;;1.70;;
42884;SDS011;28534;48.100;11.584;2022-11-20T11:37:13;4.45;;;1.80;;
42884;SDS011;28534;48.100;11.584;2022-11-20T11:42:18;7.07;;;1.48;;
42884;SDS011;28534;48.100;11.584;2022-11-20T11:47:22;5.43;;;1.77;;
42884;SDS011;28534;48.100;11.584;2022-11-20T11:52:27;6.60;;;1.75;;
42884;SDS011;28534;48.100;11.584;2022-11-20T11:57:34;8.57;;;2.30;;
42884;SDS011;28534;48.100;11.584;2022-11-20T12:02:48;9.57;;;2.10;;
42884;SDS011;28534;48.100;11.584;2022-11-20T12:08:01;8.55;;;2.08;;
42884;SDS011;28534;48.100;11.584;2022-11-20T12:13:09;9.68;;;2.40;;
42884;SDS011;28534;48.100;11.584;2022-11-20T12:18:20;12.05;;;2.10;;
42884;SDS011;28534;48.100;11.584;2022-11-20T12:23:25;8.68;;;2.33;;
42884;SDS011;28534;48.100;11.584;2022-11-20T12:28:41;6.93;;;1.73;;
42884;SDS011;28534;48.100;11.584;2022-11-20T12:34:05;6.20;;;1.70;;
42884;SDS011;28534;48.100;11.584;2022-11-20T12:39:24;8.20;;;2.10;;
42884;SDS011;28534;48.100;11.584;2022-11-20T12:44:48;7.22;;;2.08;;
42884;SDS011;28534;48.100;11.584;2022-11-20T12:50:13;8.50;;;2.50;;
42884;SDS011;28534;48.100;11.584;2022-11-20T12:55:38;9.00;;;2.33;;
42884;SDS011;28534;48.100;11.584;2022-11-20T13:00:51;10.63;;;2.53;;
42884;SDS011;28534;48.100;11.584;2022-11-20T13:06:03;12.75;;;2.80;;
42884;SDS011;28534;48.100;11.584;2022-11-20T13:11:14;13.43;;;3.00;;
42884;SDS011;28534;48.100;11.584;2022-11-20T13:16:23;14.75;;;3.17;;
42884;SDS011;28534;48.100;11.584;2022-11-20T13:21:37;11.85;;;2.58;;
42884;SDS011;28534;48.100;11.584;2022-11-20T13:26:41;10.85;;;2.80;;
42884;SDS011;28534;48.100;11.584;2022-11-20T13:31:43;10.85;;;2.90;;
42884;SDS011;28534;48.100;11.584;2022-11-20T13:36:50;16.67;;;3.35;;
42884;SDS011;28534;48.100;11.584;2022-11-20T13:41:55;10.40;;;3.00;;
42884;SDS011;28534;48.100;11.584;2022-11-20T13:46:58;13.63;;;3.15;;
42884;SDS011;28534;48.100;11.584;2022-11-20T13:52:17;16.73;;;3.25;;
42884;SDS011;28534;48.100;11.584;2022-11-20T13:57:37;18.80;;;3.50;;
42884;SDS011;28534;48.100;11.584;2022-11-20T14:02:59;14.18;;;2.80;;
42884;SDS011;28534;48.100;11.584;2022-11-20T14:08:12;11.93;;;2.97;;
42884;SDS011;28534;48.100;11.584;2022-11-20T14:13:20;17.50;;;3.40;;
42884;SDS011;28534;48.100;11.584;2022-11-20T14:18:22;20.80;;;3.05;;
42884;SDS011;28534;48.100;11.584;2022-11-20T14:23:24;14.80;;;3.10;;
42884;SDS011;28534;48.100;11.584;2022-11-20T14:28:29;12.20;;;2.78;;
42884;SDS011;28534;48.100;11.584;2022-11-20T14:33:32;17.02;;;3.47;;
42884;SDS011;28534;48.100;11.584;2022-11-20T14:38:35;19.73;;;3.38;;
42884;SDS011;28534;48.100;11.584;2022-11-20T14:43:38;11.45;;;2.67;;
42884;SDS011;28534;48.100;11.584;2022-11-20T14:48:40;19.30;;;2.85;;
42884;SDS011;28534;48.100;11.584;2022-11-20T14:53:45;17.60;;;3.30;;
42884;SDS011;28534;48.100;11.584;2022-11-20T14:58:56;12.85;;;2.60;;
42884;SDS011;28534;48.100;11.584;2022-11-20T15:04:04;12.35;;;3.08;;
42884;SDS011;28534;48.100;11.584;2022-11-20T15:09:12;15.93;;;3.00;;
42884;SDS011;28534;48.100;11.584;2022-11-20T15:14:17;11.48;;;2.30;;
42884;SDS011;28534;48.100;11.584;2022-11-20T15:19:20;10.32;;;2.53;;
42884;SDS011;28534;48.100;11.584;2022-11-20T15:24:24;11.40;;;2.75;;
42884;SDS011;28534;48.100;11.584;2022-11-20T15:29:27;10.32;;;2.65;;
42884;SDS011;28534;48.100;11.584;2022-11-20T15:34:29;21.27;;;3.15;;
42884;SDS011;28534;48.100;11.584;2022-11-20T15:39:31;9.95;;;2.97;;
42884;SDS011;28534;48.100;11.584;2022-11-20T15:44:34;20.92;;;2.95;;
42884;SDS011;28534;48.100;11.584;2022-11-20T15:49:35;13.48;;;2.38;;
42884;SDS011;28534;48.100;11.584;2022-11-20T15:54:37;11.82;;;2.53;;
42884;SDS011;28534;48.100;11.584;2022-11-20T15:59:40;13.38;;;2.85;;
42884;SDS011;28534;48.100;11.584;2022-11-20T16:04:42;14.27;;;2.97;;
42884;SDS011;28534;48.100;11.584;2022-11-20T16:09:44;14.27;;;2.90;;
42884;SDS011;28534;48.100;11.584;2022-11-20T16:14:47;11.82;;;2.58;;
42884;SDS011;28534;48.100;11.584;2022-11-20T16:20:09;9.55;;;2.70;;
42884;SDS011;28534;48.100;11.584;2022-11-20T16:25:12;10.35;;;3.05;;
42884;SDS011;28534;48.100;11.584;2022-11-20T16:30:15;10.32;;;2.85;;
42884;SDS011;28534;48.100;11.584;2022-11-20T16:35:17;7.85;;;2.35;;
42884;SDS011;28534;48.100;11.584;2022-11-20T16:40:19;11.30;;;2.92;;
42884;SDS011;28534;48.100;11.584;2022-11-20T16:45:22;10.48;;;2.60;;
42884;SDS011;28534;48.100;11.584;2022-11-20T16:50:24;10.13;;;2.65;;
42884;SDS011;28534;48.100;11.584;2022-11-20T16:55:26;8.35;;;2.20;;
42884;SDS011;28534;48.100;11.584;2022-11-20T17:00:29;14.18;;;2.60;;
42884;SDS011;28534;48.100;11.584;2022-11-20T17:05:31;12.52;;;2.75;;
42884;SDS011;28534;48.100;11.584;2022-11-20T17:10:33;11.50;;;2.50;;
42884;SDS011;28534;48.100;11.584;2022-11-20T17:15:36;11.52;;;2.40;;
42884;SDS011;28534;48.100;11.584;2022-11-20T17:20:38;10.88;;;2.88;;
42884;SDS011;28534;48.100;11.584;2022-11-20T17:25:40;9.88;;;2.63;;
42884;SDS011;28534;48.100;11.584;2022-11-20T17:30:43;9.50;;;2.50;;
42884;SDS011;28534;48.100;11.584;2022-11-20T17:35:45;11.00;;;2.30;;
42884;SDS011;28534;48.100;11.584;2022-11-20T17:40:46;8.43;;;2.45;;
42884;SDS011;28534;48.100;11.584;2022-11-20T17:45:50;7.90;;;2.22;;
42884;SDS011;28534;48.100;11.584;2022-11-20T17:50:51;14.32;;;2.50;;
42884;SDS011;28534;48.100;11.584;2022-11-20T17:55:59;11.43;;;2.80;;
42884;SDS011;28534;48.100;11.584;2022-11-20T18:01:19;10.13;;;2.35;;
42884;SDS011;28534;48.100;11.584;2022-11-20T18:06:23;12.18;;;2.15;;
42884;SDS011;28534;48.100;11.584;2022-11-20T18:11:26;12.30;;;2.15;;
42884;SDS011;28534;48.100;11.584;2022-11-20T18:16:31;9.75;;;2.33;;
42884;SDS011;28534;48.100;11.584;2022-11-20T18:21:35;10.05;;;2.30;;
42884;SDS011;28534;48.100;11.584;2022-11-20T18:26:37;13.60;;;2.40;;
42884;SDS011;28534;48.100;11.584;2022-11-20T18:31:40;7.55;;;2.50;;
42884;SDS011;28534;48.100;11.584;2022-11-20T18:36:42;8.07;;;2.15;;
42884;SDS011;28534;48.100;11.584;2022-11-20T18:41:45;8.15;;;2.30;;
42884;SDS011;28534;48.100;11.584;2022-11-20T18:47:06;12.40;;;2.45;;
42884;SDS011;28534;48.100;11.584;2022-11-20T18:52:09;5.90;;;2.05;;
42884;SDS011;28534;48.100;11.584;2022-11-20T18:57:12;9.88;;;2.00;;
42884;SDS011;28534;48.100;11.584;2022-11-20T19:02:16;8.55;;;2.28;;
42884;SDS011;28534;48.100;11.584;2022-11-20T19:07:20;5.75;;;2.05;;
42884;SDS011;28534;48.100;11.584;2022-11-20T19:12:22;7.72;;;2.35;;
42884;SDS011;28534;48.100;11.584;2022-11-20T19:17:25;5.72;;;2.10;;
42884;SDS011;28534;48.100;11.584;2022-11-20T19:22:26;7.15;;;2.22;;
42884;SDS011;28534;48.100;11.584;2022-11-20T19:27:28;6.88;;;2.05;;
42884;SDS011;28534;48.100;11.584;2022-11-20T19:32:31;6.75;;;2.35;;
42884;SDS011;28534;48.100;11.584;2022-11-20T19:37:34;6.32;;;2.22;;
42884;SDS011;28534;48.100;11.584;2022-11-20T19:42:36;8.30;;;2.30;;
42884;SDS011;28534;48.100;11.584;2022-11-20T19:47:39;8.38;;;2.20;;
42884;SDS011;28534;48.100;11.584;2022-11-20T19:52:41;10.57;;;2.30;;
42884;SDS011;28534;48.100;11.584;2022-11-20T19:57:43;7.55;;;2.38;;
42884;SDS011;28534;48.100;11.584;2022-11-20T20:02:46;6.88;;;2.00;;
42884;SDS011;28534;48.100;11.584;2022-11-20T20:07:47;5.60;;;3.53;;
42884;SDS011;28534;48.100;11.584;2022-11-20T20:12:49;4.60;;;2.97;;
42884;SDS011;28534;48.100;11.584;2022-11-20T20:17:52;4.05;;;2.90;;
42884;SDS011;28534;48.100;11.584;2022-11-20T20:22:54;2.65;;;2.28;;
42884;SDS011;28534;48.100;11.584;2022-11-20T20:27:56;4.13;;;2.60;;
42884;SDS011;28534;48.100;11.584;2022-11-20T20:32:59;4.65;;;2.90;;
42884;SDS011;28534;48.100;11.584;2022-11-20T20:38:01;4.25;;;2.28;;
42884;SDS011;28534;48.100;11.584;2022-11-20T20:43:03;3.60;;;2.30;;
42884;SDS011;28534;48.100;11.584;2022-11-20T20:48:06;5.05;;;2.58;;
42884;SDS011;28534;48.100;11.584;2022-11-20T20:53:08;3.92;;;2.30;;
42884;SDS011;28534;48.100;11.584;2022-11-20T20:58:10;3.50;;;2.40;;
42884;SDS011;28534;48.100;11.584;2022-11-20T21:03:13;3.88;;;2.20;;
42884;SDS011;28534;48.100;11.584;2022-11-20T21:08:15;2.95;;;2.20;;
42884;SDS011;28534;48.100;11.584;2022-11-20T21:13:24;4.75;;;2.38;;
42884;SDS011;28534;48.100;11.584;2022-11-20T21:18:27;3.20;;;2.22;;
42884;SDS011;28534;48.100;11.584;2022-11-20T21:23:29;2.80;;;2.03;;
42884;SDS011;28534;48.100;11.584;2022-11-20T21:28:32;5.03;;;2.08;;
42884;SDS011;28534;48.100;11.584;2022-11-20T21:33:40;4.68;;;2.20;;
42884;SDS011;28534;48.100;11.584;2022-11-20T21:38:43;4.07;;;2.30;;
42884;SDS011;28534;48.100;11.584;2022-11-20T21:43:45;4.93;;;2.17;;
42884;SDS011;28534;48.100;11.584;2022-11-20T21:48:48;3.03;;;2.17;;
42884;SDS011;28534;48.100;11.584;2022-11-20T21:53:51;4.05;;;2.58;;
42884;SDS011;28534;48.100;11.584;2022-11-20T21:58:53;3.53;;;2.05;;
